sensor_id;sensor_type;location;lat;lon;timestamp;P1;durP1;ratioP1;P2;durP2;ratioP2
9838;SDS011;4958;48.150;11.506;2022-10-30T00:00:23;11.32;;;6.82;;
9838;SDS011;4958;48.150;11.506;2022-10-30T00:02:52;9.38;;;6.80;;
9838;SDS011;4958;48.150;11.506;2022-10-30T00:05:18;15.02;;;6.80;;
9838;SDS011;4958;48.150;11.506;2022-10-30T00:07:45;10.90;;;6.07;;
9838;SDS011;4958;48.150;11.506;2022-10-30T00:10:12;11.32;;;6.03;;
9838;SDS011;4958;48.150;11.506;2022-10-30T00:12:39;15.00;;;6.30;;
9838;SDS011;4958;48.150;11.506;2022-10-30T00:15:06;10.05;;;6.38;;
9838;SDS011;4958;48.150;11.506;2022-10-30T00:17:33;9.90;;;5.75;;
9838;SDS011;4958;48.150;11.506;2022-10-30T00:20:01;10.73;;;5.78;;
9838;SDS011;4958;48.150;11.506;2022-10-30T00:22:28;10.05;;;6.40;;
9838;SDS011;4958;48.150;11.506;2022-10-30T00:24:54;8.70;;;5.75;;
9838;SDS011;4958;48.150;11.506;2022-10-30T00:27:21;8.63;;;5.82;;
9838;SDS011;4958;48.150;11.506;2022-10-30T00:29:47;8.20;;;5.50;;
9838;SDS011;4958;48.150;11.506;2022-10-30T00:32:14;11.00;;;5.72;;
9838;SDS011;4958;48.150;11.506;2022-10-30T00:34:40;9.73;;;5.30;;
9838;SDS011;4958;48.150;11.506;2022-10-30T00:37:08;9.63;;;5.68;;
9838;SDS011;4958;48.150;11.506;2022-10-30T00:39:34;8.15;;;5.28;;
9838;SDS011;4958;48.150;11.506;2022-10-30T00:42:01;13.40;;;5.88;;
9838;SDS011;4958;48.150;11.506;2022-10-30T00:44:35;11.02;;;5.68;;
9838;SDS011;4958;48.150;11.506;2022-10-30T00:47:07;11.40;;;5.32;;
9838;SDS011;4958;48.150;11.506;2022-10-30T00:49:38;10.35;;;5.43;;
9838;SDS011;4958;48.150;11.506;2022-10-30T00:52:14;9.98;;;5.80;;
9838;SDS011;4958;48.150;11.506;2022-10-30T00:54:40;8.38;;;5.45;;
9838;SDS011;4958;48.150;11.506;2022-10-30T00:57:07;9.50;;;5.32;;
9838;SDS011;4958;48.150;11.506;2022-10-30T00:59:34;10.95;;;5.90;;
9838;SDS011;4958;48.150;11.506;2022-10-30T01:02:02;10.27;;;5.45;;
9838;SDS011;4958;48.150;11.506;2022-10-30T01:04:29;12.18;;;5.78;;
9838;SDS011;4958;48.150;11.506;2022-10-30T01:06:59;7.95;;;4.68;;
9838;SDS011;4958;48.150;11.506;2022-10-30T01:09:35;11.15;;;5.50;;
9838;SDS011;4958;48.150;11.506;2022-10-30T01:12:03;10.68;;;5.45;;
9838;SDS011;4958;48.150;11.506;2022-10-30T01:14:29;11.60;;;5.20;;
9838;SDS011;4958;48.150;11.506;2022-10-30T01:17:01;11.55;;;5.18;;
9838;SDS011;4958;48.150;11.506;2022-10-30T01:19:38;9.70;;;5.40;;
9838;SDS011;4958;48.150;11.506;2022-10-30T01:22:16;9.13;;;4.63;;
9838;SDS011;4958;48.150;11.506;2022-10-30T01:24:54;10.20;;;5.10;;
9838;SDS011;4958;48.150;11.506;2022-10-30T01:27:31;9.23;;;5.75;;
9838;SDS011;4958;48.150;11.506;2022-10-30T01:30:08;9.57;;;4.88;;
9838;SDS011;4958;48.150;11.506;2022-10-30T01:32:45;9.25;;;4.85;;
9838;SDS011;4958;48.150;11.506;2022-10-30T01:35:22;8.85;;;4.75;;
9838;SDS011;4958;48.150;11.506;2022-10-30T01:37:53;8.95;;;5.25;;
9838;SDS011;4958;48.150;11.506;2022-10-30T01:40:26;9.75;;;4.45;;
9838;SDS011;4958;48.150;11.506;2022-10-30T01:42:53;11.95;;;5.03;;
9838;SDS011;4958;48.150;11.506;2022-10-30T01:45:22;10.32;;;4.78;;
9838;SDS011;4958;48.150;11.506;2022-10-30T01:48:02;10.23;;;4.80;;
9838;SDS011;4958;48.150;11.506;2022-10-30T01:50:43;9.23;;;5.25;;
9838;SDS011;4958;48.150;11.506;2022-10-30T01:53:20;12.02;;;4.82;;
9838;SDS011;4958;48.150;11.506;2022-10-30T01:56:05;12.63;;;5.57;;
9838;SDS011;4958;48.150;11.506;2022-10-30T01:58:43;12.60;;;5.30;;
9838;SDS011;4958;48.150;11.506;2022-10-30T02:01:16;10.95;;;5.50;;
9838;SDS011;4958;48.150;11.506;2022-10-30T02:03:43;8.93;;;5.57;;
9838;SDS011;4958;48.150;11.506;2022-10-30T02:06:11;11.60;;;5.25;;
9838;SDS011;4958;48.150;11.506;2022-10-30T02:08:38;8.30;;;5.40;;
9838;SDS011;4958;48.150;11.506;2022-10-30T02:11:06;12.00;;;5.20;;
9838;SDS011;4958;48.150;11.506;2022-10-30T02:13:35;10.65;;;5.82;;
9838;SDS011;4958;48.150;11.506;2022-10-30T02:16:01;8.82;;;5.68;;
9838;SDS011;4958;48.150;11.506;2022-10-30T02:18:28;10.65;;;5.28;;
9838;SDS011;4958;48.150;11.506;2022-10-30T02:20:56;12.20;;;5.60;;
9838;SDS011;4958;48.150;11.506;2022-10-30T02:23:22;10.10;;;5.25;;
9838;SDS011;4958;48.150;11.506;2022-10-30T02:25:49;10.00;;;5.90;;
9838;SDS011;4958;48.150;11.506;2022-10-30T02:28:15;10.57;;;5.55;;
9838;SDS011;4958;48.150;11.506;2022-10-30T02:30:42;9.77;;;5.45;;
9838;SDS011;4958;48.150;11.506;2022-10-30T02:33:09;12.10;;;5.32;;
9838;SDS011;4958;48.150;11.506;2022-10-30T02:35:35;10.07;;;5.55;;
9838;SDS011;4958;48.150;11.506;2022-10-30T02:38:03;12.13;;;5.93;;
9838;SDS011;4958;48.150;11.506;2022-10-30T02:40:30;11.18;;;6.07;;
9838;SDS011;4958;48.150;11.506;2022-10-30T02:42:56;11.80;;;5.38;;
9838;SDS011;4958;48.150;11.506;2022-10-30T02:45:23;12.20;;;6.18;;
9838;SDS011;4958;48.150;11.506;2022-10-30T02:47:50;9.43;;;6.25;;
9838;SDS011;4958;48.150;11.506;2022-10-30T02:50:16;8.00;;;5.45;;
9838;SDS011;4958;48.150;11.506;2022-10-30T02:52:43;11.25;;;5.82;;
9838;SDS011;4958;48.150;11.506;2022-10-30T02:55:10;9.43;;;5.43;;
9838;SDS011;4958;48.150;11.506;2022-10-30T02:57:37;9.57;;;5.45;;
9838;SDS011;4958;48.150;11.506;2022-10-30T03:00:04;8.88;;;5.70;;
9838;SDS011;4958;48.150;11.506;2022-10-30T03:02:32;10.15;;;5.82;;
9838;SDS011;4958;48.150;11.506;2022-10-30T03:04:58;11.40;;;5.60;;
9838;SDS011;4958;48.150;11.506;2022-10-30T03:07:25;12.75;;;5.72;;
9838;SDS011;4958;48.150;11.506;2022-10-30T03:09:51;9.70;;;6.00;;
9838;SDS011;4958;48.150;11.506;2022-10-30T03:12:20;9.95;;;5.55;;
9838;SDS011;4958;48.150;11.506;2022-10-30T03:14:46;9.73;;;5.32;;
9838;SDS011;4958;48.150;11.506;2022-10-30T03:17:13;8.57;;;5.57;;
9838;SDS011;4958;48.150;11.506;2022-10-30T03:19:39;8.82;;;5.57;;
9838;SDS011;4958;48.150;11.506;2022-10-30T03:22:06;13.68;;;5.57;;
9838;SDS011;4958;48.150;11.506;2022-10-30T03:24:32;8.40;;;5.78;;
9838;SDS011;4958;48.150;11.506;2022-10-30T03:26:59;9.85;;;6.03;;
9838;SDS011;4958;48.150;11.506;2022-10-30T03:29:27;12.30;;;5.72;;
9838;SDS011;4958;48.150;11.506;2022-10-30T03:31:53;14.20;;;5.78;;
9838;SDS011;4958;48.150;11.506;2022-10-30T03:34:20;12.85;;;6.20;;
9838;SDS011;4958;48.150;11.506;2022-10-30T03:36:46;10.40;;;5.78;;
9838;SDS011;4958;48.150;11.506;2022-10-30T03:39:13;14.43;;;5.80;;
9838;SDS011;4958;48.150;11.506;2022-10-30T03:41:39;13.15;;;6.03;;
9838;SDS011;4958;48.150;11.506;2022-10-30T03:44:07;5.70;;;5.10;;
9838;SDS011;4958;48.150;11.506;2022-10-30T03:46:35;8.77;;;5.85;;
9838;SDS011;4958;48.150;11.506;2022-10-30T03:49:03;9.63;;;5.90;;
9838;SDS011;4958;48.150;11.506;2022-10-30T03:51:29;11.05;;;5.90;;
9838;SDS011;4958;48.150;11.506;2022-10-30T03:53:55;9.45;;;5.65;;
9838;SDS011;4958;48.150;11.506;2022-10-30T03:56:22;8.15;;;5.38;;
9838;SDS011;4958;48.150;11.506;2022-10-30T03:58:48;10.27;;;5.80;;
9838;SDS011;4958;48.150;11.506;2022-10-30T04:01:15;11.07;;;5.90;;
9838;SDS011;4958;48.150;11.506;2022-10-30T04:03:43;8.68;;;5.20;;
9838;SDS011;4958;48.150;11.506;2022-10-30T04:06:10;12.20;;;5.80;;
9838;SDS011;4958;48.150;11.506;2022-10-30T04:08:36;12.25;;;5.85;;
9838;SDS011;4958;48.150;11.506;2022-10-30T04:11:03;10.85;;;5.57;;
9838;SDS011;4958;48.150;11.506;2022-10-30T04:13:30;10.23;;;5.82;;
9838;SDS011;4958;48.150;11.506;2022-10-30T04:15:56;10.60;;;5.88;;
9838;SDS011;4958;48.150;11.506;2022-10-30T04:18:23;8.40;;;5.38;;
9838;SDS011;4958;48.150;11.506;2022-10-30T04:20:51;12.93;;;6.05;;
9838;SDS011;4958;48.150;11.506;2022-10-30T04:23:18;8.63;;;5.70;;
9838;SDS011;4958;48.150;11.506;2022-10-30T04:25:46;9.40;;;5.57;;
9838;SDS011;4958;48.150;11.506;2022-10-30T04:28:13;9.32;;;5.50;;
9838;SDS011;4958;48.150;11.506;2022-10-30T04:30:40;8.93;;;5.45;;
9838;SDS011;4958;48.150;11.506;2022-10-30T04:33:08;7.93;;;5.15;;
9838;SDS011;4958;48.150;11.506;2022-10-30T04:35:37;6.63;;;5.20;;
9838;SDS011;4958;48.150;11.506;2022-10-30T04:38:05;9.00;;;5.18;;
9838;SDS011;4958;48.150;11.506;2022-10-30T04:40:34;10.10;;;5.30;;
9838;SDS011;4958;48.150;11.506;2022-10-30T04:43:03;10.02;;;5.63;;
9838;SDS011;4958;48.150;11.506;2022-10-30T04:45:30;9.20;;;5.53;;
9838;SDS011;4958;48.150;11.506;2022-10-30T04:48:00;12.23;;;5.80;;
9838;SDS011;4958;48.150;11.506;2022-10-30T04:50:27;13.23;;;6.20;;
9838;SDS011;4958;48.150;11.506;2022-10-30T04:52:57;12.75;;;6.03;;
9838;SDS011;4958;48.150;11.506;2022-10-30T04:55:26;8.77;;;6.22;;
9838;SDS011;4958;48.150;11.506;2022-10-30T04:57:54;9.10;;;6.15;;
9838;SDS011;4958;48.150;11.506;2022-10-30T05:00:21;9.65;;;5.70;;
9838;SDS011;4958;48.150;11.506;2022-10-30T05:02:47;9.32;;;5.38;;
9838;SDS011;4958;48.150;11.506;2022-10-30T05:05:14;8.80;;;4.95;;
9838;SDS011;4958;48.150;11.506;2022-10-30T05:07:40;8.93;;;5.13;;
9838;SDS011;4958;48.150;11.506;2022-10-30T05:10:09;10.48;;;5.45;;
9838;SDS011;4958;48.150;11.506;2022-10-30T05:12:38;12.35;;;5.72;;
9838;SDS011;4958;48.150;11.506;2022-10-30T05:15:06;8.73;;;5.03;;
9838;SDS011;4958;48.150;11.506;2022-10-30T05:17:32;11.68;;;5.50;;
9838;SDS011;4958;48.150;11.506;2022-10-30T05:19:59;10.90;;;5.95;;
9838;SDS011;4958;48.150;11.506;2022-10-30T05:22:25;9.95;;;4.90;;
9838;SDS011;4958;48.150;11.506;2022-10-30T05:24:52;10.07;;;4.85;;
9838;SDS011;4958;48.150;11.506;2022-10-30T05:27:18;7.00;;;4.93;;
9838;SDS011;4958;48.150;11.506;2022-10-30T05:29:48;9.90;;;5.20;;
9838;SDS011;4958;48.150;11.506;2022-10-30T05:32:15;8.10;;;5.65;;
9838;SDS011;4958;48.150;11.506;2022-10-30T05:34:41;11.45;;;5.13;;
9838;SDS011;4958;48.150;11.506;2022-10-30T05:37:08;11.93;;;5.03;;
9838;SDS011;4958;48.150;11.506;2022-10-30T05:39:34;11.63;;;5.30;;
9838;SDS011;4958;48.150;11.506;2022-10-30T05:42:01;11.18;;;4.97;;
9838;SDS011;4958;48.150;11.506;2022-10-30T05:44:27;10.15;;;5.35;;
9838;SDS011;4958;48.150;11.506;2022-10-30T05:46:55;8.15;;;4.75;;
9838;SDS011;4958;48.150;11.506;2022-10-30T05:49:21;7.43;;;4.75;;
9838;SDS011;4958;48.150;11.506;2022-10-30T05:51:48;8.40;;;4.53;;
9838;SDS011;4958;48.150;11.506;2022-10-30T05:54:14;9.23;;;4.68;;
9838;SDS011;4958;48.150;11.506;2022-10-30T05:56:41;7.85;;;4.70;;
9838;SDS011;4958;48.150;11.506;2022-10-30T05:59:07;10.05;;;4.80;;
9838;SDS011;4958;48.150;11.506;2022-10-30T06:01:34;8.63;;;4.65;;
9838;SDS011;4958;48.150;11.506;2022-10-30T06:04:01;7.47;;;4.30;;
9838;SDS011;4958;48.150;11.506;2022-10-30T06:06:28;10.40;;;4.30;;
9838;SDS011;4958;48.150;11.506;2022-10-30T06:08:54;7.82;;;3.78;;
9838;SDS011;4958;48.150;11.506;2022-10-30T06:11:21;8.20;;;4.07;;
9838;SDS011;4958;48.150;11.506;2022-10-30T06:13:48;9.30;;;4.40;;
9838;SDS011;4958;48.150;11.506;2022-10-30T06:16:14;6.00;;;4.60;;
9838;SDS011;4958;48.150;11.506;2022-10-30T06:18:40;8.52;;;4.20;;
9838;SDS011;4958;48.150;11.506;2022-10-30T06:21:08;9.45;;;4.25;;
9838;SDS011;4958;48.150;11.506;2022-10-30T06:23:35;10.68;;;4.20;;
9838;SDS011;4958;48.150;11.506;2022-10-30T06:26:01;9.00;;;4.93;;
9838;SDS011;4958;48.150;11.506;2022-10-30T06:28:28;8.32;;;5.25;;
9838;SDS011;4958;48.150;11.506;2022-10-30T06:30:54;10.77;;;4.53;;
9838;SDS011;4958;48.150;11.506;2022-10-30T06:33:21;13.68;;;4.38;;
9838;SDS011;4958;48.150;11.506;2022-10-30T06:35:47;10.48;;;4.28;;
9838;SDS011;4958;48.150;11.506;2022-10-30T06:38:15;9.85;;;4.18;;
9838;SDS011;4958;48.150;11.506;2022-10-30T06:40:42;10.00;;;5.07;;
9838;SDS011;4958;48.150;11.506;2022-10-30T06:43:09;12.23;;;5.00;;
9838;SDS011;4958;48.150;11.506;2022-10-30T06:45:35;13.68;;;4.50;;
9838;SDS011;4958;48.150;11.506;2022-10-30T06:48:01;9.80;;;4.43;;
9838;SDS011;4958;48.150;11.506;2022-10-30T06:50:28;9.27;;;4.47;;
9838;SDS011;4958;48.150;11.506;2022-10-30T06:52:55;8.65;;;4.20;;
9838;SDS011;4958;48.150;11.506;2022-10-30T06:55:24;8.60;;;3.92;;
9838;SDS011;4958;48.150;11.506;2022-10-30T06:57:53;10.85;;;3.90;;
9838;SDS011;4958;48.150;11.506;2022-10-30T07:00:20;8.50;;;4.10;;
9838;SDS011;4958;48.150;11.506;2022-10-30T07:02:53;8.65;;;4.07;;
9838;SDS011;4958;48.150;11.506;2022-10-30T07:05:23;9.50;;;3.97;;
9838;SDS011;4958;48.150;11.506;2022-10-30T07:07:50;8.77;;;4.53;;
9838;SDS011;4958;48.150;11.506;2022-10-30T07:10:17;8.20;;;4.07;;
9838;SDS011;4958;48.150;11.506;2022-10-30T07:12:50;8.75;;;4.05;;
9838;SDS011;4958;48.150;11.506;2022-10-30T07:15:18;8.95;;;3.95;;
9838;SDS011;4958;48.150;11.506;2022-10-30T07:17:50;13.75;;;3.78;;
9838;SDS011;4958;48.150;11.506;2022-10-30T07:20:17;7.00;;;3.63;;
9838;SDS011;4958;48.150;11.506;2022-10-30T07:22:44;8.30;;;3.40;;
9838;SDS011;4958;48.150;11.506;2022-10-30T07:25:10;7.80;;;3.38;;
9838;SDS011;4958;48.150;11.506;2022-10-30T07:27:40;8.45;;;3.38;;
9838;SDS011;4958;48.150;11.506;2022-10-30T07:30:09;6.15;;;3.63;;
9838;SDS011;4958;48.150;11.506;2022-10-30T07:32:36;9.40;;;3.65;;
9838;SDS011;4958;48.150;11.506;2022-10-30T07:37:44;8.52;;;3.63;;
9838;SDS011;4958;48.150;11.506;2022-10-30T07:40:10;9.65;;;3.75;;
9838;SDS011;4958;48.150;11.506;2022-10-30T07:42:37;10.68;;;3.80;;
9838;SDS011;4958;48.150;11.506;2022-10-30T07:45:03;7.40;;;3.65;;
9838;SDS011;4958;48.150;11.506;2022-10-30T07:47:32;9.05;;;4.00;;
9838;SDS011;4958;48.150;11.506;2022-10-30T07:49:58;9.88;;;3.58;;
9838;SDS011;4958;48.150;11.506;2022-10-30T07:52:25;8.57;;;3.60;;
9838;SDS011;4958;48.150;11.506;2022-10-30T07:54:56;8.25;;;3.55;;
9838;SDS011;4958;48.150;11.506;2022-10-30T07:57:22;9.15;;;3.50;;
9838;SDS011;4958;48.150;11.506;2022-10-30T07:59:49;7.50;;;3.38;;
9838;SDS011;4958;48.150;11.506;2022-10-30T08:02:15;8.23;;;3.50;;
9838;SDS011;4958;48.150;11.506;2022-10-30T08:04:43;8.18;;;3.20;;
9838;SDS011;4958;48.150;11.506;2022-10-30T08:07:09;6.25;;;3.28;;
9838;SDS011;4958;48.150;11.506;2022-10-30T08:09:36;7.90;;;3.83;;
9838;SDS011;4958;48.150;11.506;2022-10-30T08:12:03;9.50;;;3.75;;
9838;SDS011;4958;48.150;11.506;2022-10-30T08:14:29;7.00;;;3.63;;
9838;SDS011;4958;48.150;11.506;2022-10-30T08:16:56;7.38;;;3.38;;
9838;SDS011;4958;48.150;11.506;2022-10-30T08:19:22;8.20;;;3.53;;
9838;SDS011;4958;48.150;11.506;2022-10-30T08:21:50;7.85;;;3.63;;
9838;SDS011;4958;48.150;11.506;2022-10-30T08:24:17;11.82;;;3.58;;
9838;SDS011;4958;48.150;11.506;2022-10-30T08:26:43;9.13;;;3.47;;
9838;SDS011;4958;48.150;11.506;2022-10-30T08:29:10;9.30;;;3.78;;
9838;SDS011;4958;48.150;11.506;2022-10-30T08:31:36;9.65;;;3.38;;
9838;SDS011;4958;48.150;11.506;2022-10-30T08:34:03;7.40;;;3.45;;
9838;SDS011;4958;48.150;11.506;2022-10-30T08:36:30;9.40;;;3.70;;
9838;SDS011;4958;48.150;11.506;2022-10-30T08:38:58;5.13;;;3.03;;
9838;SDS011;4958;48.150;11.506;2022-10-30T08:41:24;8.55;;;4.07;;
9838;SDS011;4958;48.150;11.506;2022-10-30T08:43:50;8.43;;;3.25;;
9838;SDS011;4958;48.150;11.506;2022-10-30T08:46:17;10.40;;;3.67;;
9838;SDS011;4958;48.150;11.506;2022-10-30T08:48:43;6.90;;;3.38;;
9838;SDS011;4958;48.150;11.506;2022-10-30T08:51:10;7.80;;;2.92;;
9838;SDS011;4958;48.150;11.506;2022-10-30T08:53:37;11.18;;;3.40;;
9838;SDS011;4958;48.150;11.506;2022-10-30T08:56:05;8.18;;;3.20;;
9838;SDS011;4958;48.150;11.506;2022-10-30T08:58:31;7.35;;;3.63;;
9838;SDS011;4958;48.150;11.506;2022-10-30T09:00:58;9.35;;;3.13;;
9838;SDS011;4958;48.150;11.506;2022-10-30T09:03:24;7.07;;;3.33;;
9838;SDS011;4958;48.150;11.506;2022-10-30T09:05:51;10.25;;;3.25;;
9838;SDS011;4958;48.150;11.506;2022-10-30T09:08:20;7.95;;;3.35;;
9838;SDS011;4958;48.150;11.506;2022-10-30T09:10:48;13.07;;;3.67;;
9838;SDS011;4958;48.150;11.506;2022-10-30T09:13:20;9.30;;;3.53;;
9838;SDS011;4958;48.150;11.506;2022-10-30T09:15:47;13.00;;;5.07;;
9838;SDS011;4958;48.150;11.506;2022-10-30T09:18:13;12.05;;;4.85;;
9838;SDS011;4958;48.150;11.506;2022-10-30T09:20:40;10.32;;;3.63;;
9838;SDS011;4958;48.150;11.506;2022-10-30T09:23:06;8.27;;;3.50;;
9838;SDS011;4958;48.150;11.506;2022-10-30T09:25:33;8.82;;;3.22;;
9838;SDS011;4958;48.150;11.506;2022-10-30T09:28:00;13.90;;;3.40;;
9838;SDS011;4958;48.150;11.506;2022-10-30T09:30:28;8.98;;;2.95;;
9838;SDS011;4958;48.150;11.506;2022-10-30T09:32:55;10.60;;;3.67;;
9838;SDS011;4958;48.150;11.506;2022-10-30T09:35:21;9.52;;;3.33;;
9838;SDS011;4958;48.150;11.506;2022-10-30T09:37:48;7.68;;;2.97;;
9838;SDS011;4958;48.150;11.506;2022-10-30T09:40:17;12.18;;;3.35;;
9838;SDS011;4958;48.150;11.506;2022-10-30T09:42:48;8.25;;;3.33;;
9838;SDS011;4958;48.150;11.506;2022-10-30T09:45:28;8.00;;;2.95;;
9838;SDS011;4958;48.150;11.506;2022-10-30T09:48:15;6.60;;;2.88;;
9838;SDS011;4958;48.150;11.506;2022-10-30T09:51:04;8.13;;;3.30;;
9838;SDS011;4958;48.150;11.506;2022-10-30T09:53:40;10.05;;;3.55;;
9838;SDS011;4958;48.150;11.506;2022-10-30T09:56:16;8.32;;;3.08;;
9838;SDS011;4958;48.150;11.506;2022-10-30T09:58:51;9.35;;;3.30;;
9838;SDS011;4958;48.150;11.506;2022-10-30T10:01:33;7.70;;;3.25;;
9838;SDS011;4958;48.150;11.506;2022-10-30T10:04:07;6.45;;;3.05;;
9838;SDS011;4958;48.150;11.506;2022-10-30T10:06:48;8.93;;;2.95;;
9838;SDS011;4958;48.150;11.506;2022-10-30T10:09:18;8.68;;;3.60;;
9838;SDS011;4958;48.150;11.506;2022-10-30T10:11:48;7.72;;;3.20;;
9838;SDS011;4958;48.150;11.506;2022-10-30T10:14:19;8.77;;;3.65;;
9838;SDS011;4958;48.150;11.506;2022-10-30T10:16:50;9.10;;;3.28;;
9838;SDS011;4958;48.150;11.506;2022-10-30T10:19:19;8.55;;;3.33;;
9838;SDS011;4958;48.150;11.506;2022-10-30T10:21:48;7.45;;;3.20;;
9838;SDS011;4958;48.150;11.506;2022-10-30T10:24:20;6.75;;;3.13;;
9838;SDS011;4958;48.150;11.506;2022-10-30T10:26:52;9.15;;;3.40;;
9838;SDS011;4958;48.150;11.506;2022-10-30T10:29:27;10.88;;;3.33;;
9838;SDS011;4958;48.150;11.506;2022-10-30T10:32:14;8.80;;;3.10;;
9838;SDS011;4958;48.150;11.506;2022-10-30T10:34:54;12.82;;;3.85;;
9838;SDS011;4958;48.150;11.506;2022-10-30T10:37:37;8.70;;;3.75;;
9838;SDS011;4958;48.150;11.506;2022-10-30T10:40:15;8.07;;;3.30;;
9838;SDS011;4958;48.150;11.506;2022-10-30T10:42:55;9.05;;;3.38;;
9838;SDS011;4958;48.150;11.506;2022-10-30T10:45:54;7.20;;;3.05;;
9838;SDS011;4958;48.150;11.506;2022-10-30T10:48:51;8.85;;;3.30;;
9838;SDS011;4958;48.150;11.506;2022-10-30T10:51:28;8.27;;;3.30;;
9838;SDS011;4958;48.150;11.506;2022-10-30T10:53:59;8.55;;;3.25;;
9838;SDS011;4958;48.150;11.506;2022-10-30T10:56:30;10.50;;;3.80;;
9838;SDS011;4958;48.150;11.506;2022-10-30T10:59:00;9.13;;;3.63;;
9838;SDS011;4958;48.150;11.506;2022-10-30T11:01:34;7.45;;;3.63;;
9838;SDS011;4958;48.150;11.506;2022-10-30T11:04:08;8.63;;;3.25;;
9838;SDS011;4958;48.150;11.506;2022-10-30T11:06:40;12.38;;;3.90;;
9838;SDS011;4958;48.150;11.506;2022-10-30T11:09:12;9.63;;;3.42;;
9838;SDS011;4958;48.150;11.506;2022-10-30T11:11:41;10.57;;;3.72;;
9838;SDS011;4958;48.150;11.506;2022-10-30T11:14:11;7.18;;;3.17;;
9838;SDS011;4958;48.150;11.506;2022-10-30T11:16:42;9.70;;;3.83;;
9838;SDS011;4958;48.150;11.506;2022-10-30T11:19:18;7.30;;;3.28;;
9838;SDS011;4958;48.150;11.506;2022-10-30T11:21:45;10.10;;;3.15;;
9838;SDS011;4958;48.150;11.506;2022-10-30T11:24:24;9.80;;;3.60;;
9838;SDS011;4958;48.150;11.506;2022-10-30T11:26:53;10.15;;;3.55;;
9838;SDS011;4958;48.150;11.506;2022-10-30T11:29:21;6.30;;;3.08;;
9838;SDS011;4958;48.150;11.506;2022-10-30T11:31:57;8.45;;;2.95;;
9838;SDS011;4958;48.150;11.506;2022-10-30T11:34:29;7.68;;;3.40;;
9838;SDS011;4958;48.150;11.506;2022-10-30T11:36:58;8.90;;;4.20;;
9838;SDS011;4958;48.150;11.506;2022-10-30T11:39:25;7.47;;;3.28;;
9838;SDS011;4958;48.150;11.506;2022-10-30T11:41:57;6.00;;;3.45;;
9838;SDS011;4958;48.150;11.506;2022-10-30T11:44:28;12.00;;;3.40;;
9838;SDS011;4958;48.150;11.506;2022-10-30T11:46:58;8.73;;;3.35;;
9838;SDS011;4958;48.150;11.506;2022-10-30T11:49:29;9.05;;;3.80;;
9838;SDS011;4958;48.150;11.506;2022-10-30T11:52:01;7.13;;;3.15;;
9838;SDS011;4958;48.150;11.506;2022-10-30T11:54:33;13.90;;;3.38;;
9838;SDS011;4958;48.150;11.506;2022-10-30T11:57:03;12.30;;;3.10;;
9838;SDS011;4958;48.150;11.506;2022-10-30T11:59:30;9.35;;;3.00;;
9838;SDS011;4958;48.150;11.506;2022-10-30T12:01:57;10.57;;;3.42;;
9838;SDS011;4958;48.150;11.506;2022-10-30T12:04:26;6.82;;;3.33;;
9838;SDS011;4958;48.150;11.506;2022-10-30T12:07:06;8.23;;;3.28;;
9838;SDS011;4958;48.150;11.506;2022-10-30T12:09:43;7.97;;;3.70;;
9838;SDS011;4958;48.150;11.506;2022-10-30T12:12:12;9.75;;;3.90;;
9838;SDS011;4958;48.150;11.506;2022-10-30T12:14:47;9.50;;;3.40;;
9838;SDS011;4958;48.150;11.506;2022-10-30T12:17:14;12.25;;;4.00;;
9838;SDS011;4958;48.150;11.506;2022-10-30T12:19:44;8.55;;;4.03;;
9838;SDS011;4958;48.150;11.506;2022-10-30T12:22:23;9.73;;;3.70;;
9838;SDS011;4958;48.150;11.506;2022-10-30T12:24:53;8.07;;;3.70;;
9838;SDS011;4958;48.150;11.506;2022-10-30T12:27:20;8.27;;;3.45;;
9838;SDS011;4958;48.150;11.506;2022-10-30T12:29:50;12.13;;;3.63;;
9838;SDS011;4958;48.150;11.506;2022-10-30T12:32:32;9.73;;;3.55;;
9838;SDS011;4958;48.150;11.506;2022-10-30T12:35:14;8.93;;;3.55;;
9838;SDS011;4958;48.150;11.506;2022-10-30T12:37:52;10.27;;;3.88;;
9838;SDS011;4958;48.150;11.506;2022-10-30T12:40:20;7.88;;;3.42;;
9838;SDS011;4958;48.150;11.506;2022-10-30T12:42:54;6.70;;;3.47;;
9838;SDS011;4958;48.150;11.506;2022-10-30T12:45:27;7.82;;;3.28;;
9838;SDS011;4958;48.150;11.506;2022-10-30T12:47:58;10.23;;;3.20;;
9838;SDS011;4958;48.150;11.506;2022-10-30T12:50:34;9.40;;;3.80;;
9838;SDS011;4958;48.150;11.506;2022-10-30T12:53:10;9.52;;;3.72;;
9838;SDS011;4958;48.150;11.506;2022-10-30T12:55:49;8.95;;;3.70;;
9838;SDS011;4958;48.150;11.506;2022-10-30T12:58:23;10.63;;;3.35;;
9838;SDS011;4958;48.150;11.506;2022-10-30T13:00:59;11.90;;;3.88;;
9838;SDS011;4958;48.150;11.506;2022-10-30T13:03:31;8.77;;;3.55;;
9838;SDS011;4958;48.150;11.506;2022-10-30T13:06:04;9.93;;;3.58;;
9838;SDS011;4958;48.150;11.506;2022-10-30T13:08:37;8.68;;;3.08;;
9838;SDS011;4958;48.150;11.506;2022-10-30T13:11:10;7.80;;;3.80;;
9838;SDS011;4958;48.150;11.506;2022-10-30T13:13:42;12.32;;;3.70;;
9838;SDS011;4958;48.150;11.506;2022-10-30T13:16:13;6.68;;;3.00;;
9838;SDS011;4958;48.150;11.506;2022-10-30T13:18:42;13.82;;;4.25;;
9838;SDS011;4958;48.150;11.506;2022-10-30T13:21:12;9.57;;;3.60;;
9838;SDS011;4958;48.150;11.506;2022-10-30T13:23:47;9.57;;;3.28;;
9838;SDS011;4958;48.150;11.506;2022-10-30T13:26:21;10.20;;;3.30;;
9838;SDS011;4958;48.150;11.506;2022-10-30T13:28:56;10.55;;;3.55;;
9838;SDS011;4958;48.150;11.506;2022-10-30T13:31:32;8.65;;;3.00;;
9838;SDS011;4958;48.150;11.506;2022-10-30T13:34:10;9.40;;;3.00;;
9838;SDS011;4958;48.150;11.506;2022-10-30T13:36:56;11.60;;;3.22;;
9838;SDS011;4958;48.150;11.506;2022-10-30T13:39:29;5.97;;;3.30;;
9838;SDS011;4958;48.150;11.506;2022-10-30T13:42:13;12.57;;;3.60;;
9838;SDS011;4958;48.150;11.506;2022-10-30T13:44:49;11.18;;;3.58;;
9838;SDS011;4958;48.150;11.506;2022-10-30T13:47:28;8.73;;;3.35;;
9838;SDS011;4958;48.150;11.506;2022-10-30T13:50:07;7.97;;;3.38;;
9838;SDS011;4958;48.150;11.506;2022-10-30T13:52:44;10.63;;;3.58;;
9838;SDS011;4958;48.150;11.506;2022-10-30T13:55:17;8.27;;;3.30;;
9838;SDS011;4958;48.150;11.506;2022-10-30T13:57:49;10.13;;;3.88;;
9838;SDS011;4958;48.150;11.506;2022-10-30T14:00:22;10.18;;;3.58;;
9838;SDS011;4958;48.150;11.506;2022-10-30T14:05:56;11.52;;;3.72;;
9838;SDS011;4958;48.150;11.506;2022-10-30T14:08:31;7.35;;;3.45;;
9838;SDS011;4958;48.150;11.506;2022-10-30T14:11:03;5.53;;;3.17;;
9838;SDS011;4958;48.150;11.506;2022-10-30T14:13:43;9.27;;;3.80;;
9838;SDS011;4958;48.150;11.506;2022-10-30T14:16:30;8.95;;;3.40;;
9838;SDS011;4958;48.150;11.506;2022-10-30T14:18:59;16.23;;;4.35;;
9838;SDS011;4958;48.150;11.506;2022-10-30T14:21:30;9.00;;;3.58;;
9838;SDS011;4958;48.150;11.506;2022-10-30T14:24:03;7.82;;;3.55;;
9838;SDS011;4958;48.150;11.506;2022-10-30T14:26:37;10.20;;;3.78;;
9838;SDS011;4958;48.150;11.506;2022-10-30T14:31:56;8.63;;;3.97;;
9838;SDS011;4958;48.150;11.506;2022-10-30T14:34:41;10.07;;;4.22;;
9838;SDS011;4958;48.150;11.506;2022-10-30T14:37:08;8.80;;;3.45;;
9838;SDS011;4958;48.150;11.506;2022-10-30T14:39:38;9.20;;;3.97;;
9838;SDS011;4958;48.150;11.506;2022-10-30T14:42:11;10.95;;;3.60;;
9838;SDS011;4958;48.150;11.506;2022-10-30T14:47:44;12.05;;;3.65;;
9838;SDS011;4958;48.150;11.506;2022-10-30T14:50:16;23.33;;;16.52;;
9838;SDS011;4958;48.150;11.506;2022-10-30T14:52:53;15.02;;;12.25;;
9838;SDS011;4958;48.150;11.506;2022-10-30T14:55:35;10.40;;;4.20;;
9838;SDS011;4958;48.150;11.506;2022-10-30T14:58:20;8.07;;;3.40;;
9838;SDS011;4958;48.150;11.506;2022-10-30T15:00:49;9.30;;;3.70;;
9838;SDS011;4958;48.150;11.506;2022-10-30T15:03:21;11.00;;;4.03;;
9838;SDS011;4958;48.150;11.506;2022-10-30T15:05:58;8.88;;;3.53;;
9838;SDS011;4958;48.150;11.506;2022-10-30T15:11:38;7.97;;;3.47;;
9838;SDS011;4958;48.150;11.506;2022-10-30T15:14:27;8.90;;;3.53;;
9838;SDS011;4958;48.150;11.506;2022-10-30T15:16:57;12.05;;;4.15;;
9838;SDS011;4958;48.150;11.506;2022-10-30T15:19:24;7.70;;;3.83;;
9838;SDS011;4958;48.150;11.506;2022-10-30T15:21:51;7.18;;;3.28;;
9838;SDS011;4958;48.150;11.506;2022-10-30T15:24:20;7.25;;;4.03;;
9838;SDS011;4958;48.150;11.506;2022-10-30T15:26:53;9.50;;;3.42;;